sensor_id;sensor_type;location;lat;lon;timestamp;P1;durP1;ratioP1;P2;durP2;ratioP2
3718;SDS011;1875;52.492;6.860;2023-04-15T00:01:41;7.97;;;4.97;;
3718;SDS011;1875;52.492;6.860;2023-04-15T00:04:11;10.63;;;5.87;;
3718;SDS011;1875;52.492;6.860;2023-04-15T00:06:39;10.50;;;5.67;;
3718;SDS011;1875;52.492;6.860;2023-04-15T00:09:07;8.53;;;4.97;;
3718;SDS011;1875;52.492;6.860;2023-04-15T00:11:35;8.20;;;4.80;;
3718;SDS011;1875;52.492;6.860;2023-04-15T00:14:02;13.87;;;5.17;;
3718;SDS011;1875;52.492;6.860;2023-04-15T00:16:31;9.40;;;5.10;;
3718;SDS011;1875;52.492;6.860;2023-04-15T00:18:59;8.07;;;5.07;;
3718;SDS011;1875;52.492;6.860;2023-04-15T00:21:29;11.67;;;5.90;;
3718;SDS011;1875;52.492;6.860;2023-04-15T00:23:56;12.33;;;5.93;;
3718;SDS011;1875;52.492;6.860;2023-04-15T00:26:24;11.07;;;5.57;;
3718;SDS011;1875;52.492;6.860;2023-04-15T00:28:52;11.13;;;6.60;;
3718;SDS011;1875;52.492;6.860;2023-04-15T00:31:20;7.47;;;5.40;;
3718;SDS011;1875;52.492;6.860;2023-04-15T00:33:48;9.60;;;5.60;;
3718;SDS011;1875;52.492;6.860;2023-04-15T00:36:16;8.90;;;5.53;;
3718;SDS011;1875;52.492;6.860;2023-04-15T00:38:45;11.23;;;5.90;;
3718;SDS011;1875;52.492;6.860;2023-04-15T00:41:13;11.57;;;6.90;;
3718;SDS011;1875;52.492;6.860;2023-04-15T00:43:41;10.50;;;6.03;;
3718;SDS011;1875;52.492;6.860;2023-04-15T00:46:08;10.90;;;6.33;;
3718;SDS011;1875;52.492;6.860;2023-04-15T00:48:37;10.57;;;5.90;;
3718;SDS011;1875;52.492;6.860;2023-04-15T00:51:06;9.33;;;5.77;;
3718;SDS011;1875;52.492;6.860;2023-04-15T00:53:34;11.97;;;5.37;;
3718;SDS011;1875;52.492;6.860;2023-04-15T00:56:04;11.27;;;5.50;;
3718;SDS011;1875;52.492;6.860;2023-04-15T00:58:32;12.37;;;6.03;;
3718;SDS011;1875;52.492;6.860;2023-04-15T01:01:00;10.60;;;5.77;;
3718;SDS011;1875;52.492;6.860;2023-04-15T01:03:28;9.37;;;6.33;;
3718;SDS011;1875;52.492;6.860;2023-04-15T01:05:56;11.07;;;6.23;;
3718;SDS011;1875;52.492;6.860;2023-04-15T01:08:26;10.33;;;6.23;;
3718;SDS011;1875;52.492;6.860;2023-04-15T01:10:55;8.33;;;5.40;;
3718;SDS011;1875;52.492;6.860;2023-04-15T01:13:24;9.50;;;6.03;;
3718;SDS011;1875;52.492;6.860;2023-04-15T01:15:52;13.57;;;6.70;;
3718;SDS011;1875;52.492;6.860;2023-04-15T01:18:20;11.77;;;6.83;;
3718;SDS011;1875;52.492;6.860;2023-04-15T01:20:48;10.23;;;6.23;;
3718;SDS011;1875;52.492;6.860;2023-04-15T01:23:16;12.97;;;6.10;;
3718;SDS011;1875;52.492;6.860;2023-04-15T01:25:45;11.07;;;6.13;;
3718;SDS011;1875;52.492;6.860;2023-04-15T01:28:13;11.83;;;6.93;;
3718;SDS011;1875;52.492;6.860;2023-04-15T01:30:41;12.37;;;6.47;;
3718;SDS011;1875;52.492;6.860;2023-04-15T01:33:09;9.43;;;6.17;;
3718;SDS011;1875;52.492;6.860;2023-04-15T01:35:37;12.43;;;6.63;;
3718;SDS011;1875;52.492;6.860;2023-04-15T01:38:05;10.90;;;7.23;;
3718;SDS011;1875;52.492;6.860;2023-04-15T01:40:35;12.87;;;7.50;;
3718;SDS011;1875;52.492;6.860;2023-04-15T01:43:04;11.97;;;6.30;;
3718;SDS011;1875;52.492;6.860;2023-04-15T01:45:32;12.03;;;7.23;;
3718;SDS011;1875;52.492;6.860;2023-04-15T01:47:59;13.97;;;8.10;;
3718;SDS011;1875;52.492;6.860;2023-04-15T01:50:27;10.87;;;7.00;;
3718;SDS011;1875;52.492;6.860;2023-04-15T01:52:55;11.80;;;7.10;;
3718;SDS011;1875;52.492;6.860;2023-04-15T01:55:23;12.73;;;7.63;;
3718;SDS011;1875;52.492;6.860;2023-04-15T01:57:50;11.70;;;7.30;;
3718;SDS011;1875;52.492;6.860;2023-04-15T02:00:19;11.50;;;7.33;;
3718;SDS011;1875;52.492;6.860;2023-04-15T02:02:48;9.13;;;6.83;;
3718;SDS011;1875;52.492;6.860;2023-04-15T02:05:16;11.50;;;7.40;;
3718;SDS011;1875;52.492;6.860;2023-04-15T02:07:44;13.47;;;8.07;;
3718;SDS011;1875;52.492;6.860;2023-04-15T02:10:12;11.27;;;7.73;;
3718;SDS011;1875;52.492;6.860;2023-04-15T02:12:40;13.57;;;7.70;;
3718;SDS011;1875;52.492;6.860;2023-04-15T02:15:08;12.60;;;7.83;;
3718;SDS011;1875;52.492;6.860;2023-04-15T02:17:38;14.50;;;8.43;;
3718;SDS011;1875;52.492;6.860;2023-04-15T02:20:07;13.83;;;8.97;;
3718;SDS011;1875;52.492;6.860;2023-04-15T02:22:35;10.10;;;7.87;;
3718;SDS011;1875;52.492;6.860;2023-04-15T02:25:03;13.83;;;8.70;;
3718;SDS011;1875;52.492;6.860;2023-04-15T02:27:32;14.90;;;8.63;;
3718;SDS011;1875;52.492;6.860;2023-04-15T02:30:00;10.10;;;8.43;;
3718;SDS011;1875;52.492;6.860;2023-04-15T02:32:28;16.57;;;8.50;;
3718;SDS011;1875;52.492;6.860;2023-04-15T02:34:58;12.00;;;8.50;;
3718;SDS011;1875;52.492;6.860;2023-04-15T02:37:29;15.57;;;9.27;;
3718;SDS011;1875;52.492;6.860;2023-04-15T02:39:57;17.23;;;8.87;;
3718;SDS011;1875;52.492;6.860;2023-04-15T02:42:24;13.73;;;9.63;;
3718;SDS011;1875;52.492;6.860;2023-04-15T02:44:54;13.87;;;9.00;;
3718;SDS011;1875;52.492;6.860;2023-04-15T02:47:22;14.00;;;9.10;;
3718;SDS011;1875;52.492;6.860;2023-04-15T02:49:50;20.30;;;10.23;;
3718;SDS011;1875;52.492;6.860;2023-04-15T02:52:19;13.97;;;9.50;;
3718;SDS011;1875;52.492;6.860;2023-04-15T02:54:46;15.43;;;9.77;;
3718;SDS011;1875;52.492;6.860;2023-04-15T02:57:14;16.20;;;10.03;;
3718;SDS011;1875;52.492;6.860;2023-04-15T02:59:42;12.40;;;9.73;;
3718;SDS011;1875;52.492;6.860;2023-04-15T03:02:10;12.83;;;8.77;;
3718;SDS011;1875;52.492;6.860;2023-04-15T03:04:38;14.17;;;9.10;;
3718;SDS011;1875;52.492;6.860;2023-04-15T03:07:05;15.30;;;9.53;;
3718;SDS011;1875;52.492;6.860;2023-04-15T03:09:34;18.03;;;10.27;;
3718;SDS011;1875;52.492;6.860;2023-04-15T03:12:05;14.47;;;9.50;;
3718;SDS011;1875;52.492;6.860;2023-04-15T03:14:32;17.87;;;10.27;;
3718;SDS011;1875;52.492;6.860;2023-04-15T03:17:00;13.70;;;10.07;;
3718;SDS011;1875;52.492;6.860;2023-04-15T03:19:28;16.80;;;10.57;;
3718;SDS011;1875;52.492;6.860;2023-04-15T03:21:56;18.27;;;10.70;;
3718;SDS011;1875;52.492;6.860;2023-04-15T03:24:23;15.50;;;10.90;;
3718;SDS011;1875;52.492;6.860;2023-04-15T03:26:52;15.43;;;11.23;;
3718;SDS011;1875;52.492;6.860;2023-04-15T03:29:21;16.77;;;11.67;;
3718;SDS011;1875;52.492;6.860;2023-04-15T03:31:49;15.43;;;10.60;;
3718;SDS011;1875;52.492;6.860;2023-04-15T03:34:17;17.40;;;11.50;;
3718;SDS011;1875;52.492;6.860;2023-04-15T03:36:45;17.90;;;12.43;;
3718;SDS011;1875;52.492;6.860;2023-04-15T03:39:13;18.60;;;11.23;;
3718;SDS011;1875;52.492;6.860;2023-04-15T03:41:41;18.10;;;11.93;;
3718;SDS011;1875;52.492;6.860;2023-04-15T03:44:10;17.47;;;13.20;;
3718;SDS011;1875;52.492;6.860;2023-04-15T03:46:38;20.30;;;13.20;;
3718;SDS011;1875;52.492;6.860;2023-04-15T03:49:06;22.57;;;13.17;;
3718;SDS011;1875;52.492;6.860;2023-04-15T03:51:34;18.73;;;11.93;;
3718;SDS011;1875;52.492;6.860;2023-04-15T03:54:02;18.63;;;14.50;;
3718;SDS011;1875;52.492;6.860;2023-04-15T03:56:30;19.37;;;13.97;;
3718;SDS011;1875;52.492;6.860;2023-04-15T03:58:57;18.30;;;13.33;;
3718;SDS011;1875;52.492;6.860;2023-04-15T04:01:27;19.77;;;13.53;;
3718;SDS011;1875;52.492;6.860;2023-04-15T04:03:54;17.30;;;12.73;;
3718;SDS011;1875;52.492;6.860;2023-04-15T04:06:22;27.17;;;15.13;;
3718;SDS011;1875;52.492;6.860;2023-04-15T04:08:50;19.07;;;14.53;;
3718;SDS011;1875;52.492;6.860;2023-04-15T04:11:18;20.87;;;14.97;;
3718;SDS011;1875;52.492;6.860;2023-04-15T04:13:46;26.57;;;15.93;;
3718;SDS011;1875;52.492;6.860;2023-04-15T04:16:13;23.80;;;16.70;;
3718;SDS011;1875;52.492;6.860;2023-04-15T04:18:43;22.63;;;17.03;;
3718;SDS011;1875;52.492;6.860;2023-04-15T04:21:10;26.70;;;17.23;;
3718;SDS011;1875;52.492;6.860;2023-04-15T04:23:38;22.97;;;15.87;;
3718;SDS011;1875;52.492;6.860;2023-04-15T04:26:06;23.20;;;16.77;;
3718;SDS011;1875;52.492;6.860;2023-04-15T04:28:34;22.80;;;16.33;;
3718;SDS011;1875;52.492;6.860;2023-04-15T04:31:01;25.23;;;17.10;;
3718;SDS011;1875;52.492;6.860;2023-04-15T04:33:29;25.50;;;17.63;;
3718;SDS011;1875;52.492;6.860;2023-04-15T04:35:58;27.90;;;17.43;;
3718;SDS011;1875;52.492;6.860;2023-04-15T04:38:26;26.77;;;17.90;;
3718;SDS011;1875;52.492;6.860;2023-04-15T04:40:54;28.07;;;18.10;;
3718;SDS011;1875;52.492;6.860;2023-04-15T04:43:22;24.50;;;18.20;;
3718;SDS011;1875;52.492;6.860;2023-04-15T04:45:49;29.00;;;18.80;;
3718;SDS011;1875;52.492;6.860;2023-04-15T04:48:17;27.90;;;17.83;;
3718;SDS011;1875;52.492;6.860;2023-04-15T04:50:45;30.67;;;19.33;;
3718;SDS011;1875;52.492;6.860;2023-04-15T04:53:14;26.67;;;19.17;;
3718;SDS011;1875;52.492;6.860;2023-04-15T04:55:43;30.00;;;19.37;;
3718;SDS011;1875;52.492;6.860;2023-04-15T04:58:10;26.17;;;18.23;;
3718;SDS011;1875;52.492;6.860;2023-04-15T05:00:39;27.30;;;18.33;;
3718;SDS011;1875;52.492;6.860;2023-04-15T05:03:07;25.27;;;17.47;;
3718;SDS011;1875;52.492;6.860;2023-04-15T05:05:35;24.57;;;17.77;;
3718;SDS011;1875;52.492;6.860;2023-04-15T05:08:04;24.37;;;16.37;;
3718;SDS011;1875;52.492;6.860;2023-04-15T05:10:33;27.20;;;18.17;;
3718;SDS011;1875;52.492;6.860;2023-04-15T05:13:01;24.33;;;16.23;;
3718;SDS011;1875;52.492;6.860;2023-04-15T05:15:29;27.53;;;16.73;;
3718;SDS011;1875;52.492;6.860;2023-04-15T05:17:57;24.27;;;15.90;;
3718;SDS011;1875;52.492;6.860;2023-04-15T05:20:25;25.30;;;17.03;;
3718;SDS011;1875;52.492;6.860;2023-04-15T05:22:53;27.83;;;17.37;;
3718;SDS011;1875;52.492;6.860;2023-04-15T05:25:21;23.80;;;17.23;;
3718;SDS011;1875;52.492;6.860;2023-04-15T05:27:50;22.80;;;16.07;;
3718;SDS011;1875;52.492;6.860;2023-04-15T05:30:17;24.43;;;17.40;;
3718;SDS011;1875;52.492;6.860;2023-04-15T05:32:45;30.00;;;17.10;;
3718;SDS011;1875;52.492;6.860;2023-04-15T05:35:13;25.70;;;16.73;;
3718;SDS011;1875;52.492;6.860;2023-04-15T05:37:40;22.33;;;15.83;;
3718;SDS011;1875;52.492;6.860;2023-04-15T05:40:08;29.07;;;17.43;;
3718;SDS011;1875;52.492;6.860;2023-04-15T05:42:36;22.43;;;16.00;;
3718;SDS011;1875;52.492;6.860;2023-04-15T05:45:06;23.63;;;16.00;;
3718;SDS011;1875;52.492;6.860;2023-04-15T05:47:34;21.53;;;15.27;;
3718;SDS011;1875;52.492;6.860;2023-04-15T05:50:03;21.77;;;15.83;;
3718;SDS011;1875;52.492;6.860;2023-04-15T05:52:31;20.80;;;14.57;;
3718;SDS011;1875;52.492;6.860;2023-04-15T05:54:59;22.73;;;14.23;;
3718;SDS011;1875;52.492;6.860;2023-04-15T05:57:27;21.87;;;15.40;;
3718;SDS011;1875;52.492;6.860;2023-04-15T05:59:54;19.70;;;13.63;;
3718;SDS011;1875;52.492;6.860;2023-04-15T06:02:24;20.47;;;13.60;;
3718;SDS011;1875;52.492;6.860;2023-04-15T06:04:53;20.80;;;13.90;;
3718;SDS011;1875;52.492;6.860;2023-04-15T06:07:21;19.90;;;13.93;;
3718;SDS011;1875;52.492;6.860;2023-04-15T06:09:48;23.57;;;13.87;;
3718;SDS011;1875;52.492;6.860;2023-04-15T06:12:16;20.80;;;14.40;;
3718;SDS011;1875;52.492;6.860;2023-04-15T06:14:44;16.17;;;10.73;;
3718;SDS011;1875;52.492;6.860;2023-04-15T06:17:12;20.23;;;13.00;;
3718;SDS011;1875;52.492;6.860;2023-04-15T06:19:41;19.10;;;13.70;;
3718;SDS011;1875;52.492;6.860;2023-04-15T06:22:09;20.07;;;13.97;;
3718;SDS011;1875;52.492;6.860;2023-04-15T06:24:36;16.97;;;12.43;;
3718;SDS011;1875;52.492;6.860;2023-04-15T06:27:04;18.40;;;13.30;;
3718;SDS011;1875;52.492;6.860;2023-04-15T06:29:32;18.27;;;12.40;;
3718;SDS011;1875;52.492;6.860;2023-04-15T06:32:00;17.13;;;12.17;;
3718;SDS011;1875;52.492;6.860;2023-04-15T06:34:27;17.90;;;12.43;;
3718;SDS011;1875;52.492;6.860;2023-04-15T06:36:56;16.43;;;11.40;;
3718;SDS011;1875;52.492;6.860;2023-04-15T06:39:24;17.83;;;11.73;;
3718;SDS011;1875;52.492;6.860;2023-04-15T06:41:52;18.93;;;11.40;;
3718;SDS011;1875;52.492;6.860;2023-04-15T06:44:20;18.57;;;10.43;;
3718;SDS011;1875;52.492;6.860;2023-04-15T06:46:47;16.50;;;8.93;;
3718;SDS011;1875;52.492;6.860;2023-04-15T06:49:15;17.40;;;12.33;;
3718;SDS011;1875;52.492;6.860;2023-04-15T06:51:43;13.80;;;6.33;;
3718;SDS011;1875;52.492;6.860;2023-04-15T06:54:12;19.37;;;9.97;;
3718;SDS011;1875;52.492;6.860;2023-04-15T06:56:40;17.00;;;11.20;;
3718;SDS011;1875;52.492;6.860;2023-04-15T06:59:09;18.60;;;11.87;;
3718;SDS011;1875;52.492;6.860;2023-04-15T07:01:36;20.90;;;12.70;;
3718;SDS011;1875;52.492;6.860;2023-04-15T07:04:04;16.90;;;11.17;;
3718;SDS011;1875;52.492;6.860;2023-04-15T07:06:32;22.47;;;12.73;;
3718;SDS011;1875;52.492;6.860;2023-04-15T07:09:00;17.77;;;11.57;;
3718;SDS011;1875;52.492;6.860;2023-04-15T07:11:32;18.73;;;11.90;;
3718;SDS011;1875;52.492;6.860;2023-04-15T07:13:59;20.97;;;13.60;;
3718;SDS011;1875;52.492;6.860;2023-04-15T07:16:27;22.80;;;12.37;;
3718;SDS011;1875;52.492;6.860;2023-04-15T07:18:55;19.70;;;12.27;;
3718;SDS011;1875;52.492;6.860;2023-04-15T07:21:23;23.37;;;14.70;;
3718;SDS011;1875;52.492;6.860;2023-04-15T07:23:52;19.63;;;13.70;;
3718;SDS011;1875;52.492;6.860;2023-04-15T07:26:20;20.00;;;12.27;;
3718;SDS011;1875;52.492;6.860;2023-04-15T07:28:50;25.10;;;15.53;;
3718;SDS011;1875;52.492;6.860;2023-04-15T07:31:17;16.77;;;13.07;;
3718;SDS011;1875;52.492;6.860;2023-04-15T07:33:45;18.57;;;11.30;;
3718;SDS011;1875;52.492;6.860;2023-04-15T07:36:13;18.27;;;11.70;;
3718;SDS011;1875;52.492;6.860;2023-04-15T07:38:41;14.40;;;9.43;;
3718;SDS011;1875;52.492;6.860;2023-04-15T07:41:11;13.60;;;9.33;;
3718;SDS011;1875;52.492;6.860;2023-04-15T07:43:39;14.80;;;9.50;;
3718;SDS011;1875;52.492;6.860;2023-04-15T07:46:08;16.53;;;7.93;;
3718;SDS011;1875;52.492;6.860;2023-04-15T07:48:36;13.67;;;8.73;;
3718;SDS011;1875;52.492;6.860;2023-04-15T07:51:04;14.97;;;9.50;;
3718;SDS011;1875;52.492;6.860;2023-04-15T07:53:33;14.00;;;9.03;;
3718;SDS011;1875;52.492;6.860;2023-04-15T07:56:00;14.47;;;9.43;;
3718;SDS011;1875;52.492;6.860;2023-04-15T07:58:28;11.50;;;7.17;;
3718;SDS011;1875;52.492;6.860;2023-04-15T08:00:56;10.27;;;6.87;;
3718;SDS011;1875;52.492;6.860;2023-04-15T08:03:25;13.17;;;8.90;;
3718;SDS011;1875;52.492;6.860;2023-04-15T08:05:53;11.13;;;7.03;;
3718;SDS011;1875;52.492;6.860;2023-04-15T08:08:20;10.90;;;7.07;;
3718;SDS011;1875;52.492;6.860;2023-04-15T08:10:48;12.37;;;8.00;;
3718;SDS011;1875;52.492;6.860;2023-04-15T08:13:18;13.37;;;7.83;;
3718;SDS011;1875;52.492;6.860;2023-04-15T08:15:52;9.70;;;5.73;;
3718;SDS011;1875;52.492;6.860;2023-04-15T08:18:25;13.00;;;7.60;;
3718;SDS011;1875;52.492;6.860;2023-04-15T08:20:53;10.10;;;6.50;;
3718;SDS011;1875;52.492;6.860;2023-04-15T08:23:20;7.37;;;5.93;;
3718;SDS011;1875;52.492;6.860;2023-04-15T08:25:49;11.13;;;6.87;;
3718;SDS011;1875;52.492;6.860;2023-04-15T08:28:17;8.13;;;5.83;;
3718;SDS011;1875;52.492;6.860;2023-04-15T08:30:45;7.23;;;5.20;;
3718;SDS011;1875;52.492;6.860;2023-04-15T08:33:13;8.77;;;5.37;;
3718;SDS011;1875;52.492;6.860;2023-04-15T08:35:42;10.47;;;5.50;;
3718;SDS011;1875;52.492;6.860;2023-04-15T08:38:10;9.80;;;4.90;;
3718;SDS011;1875;52.492;6.860;2023-04-15T08:40:39;7.07;;;4.47;;
3718;SDS011;1875;52.492;6.860;2023-04-15T08:43:09;7.27;;;4.80;;
3718;SDS011;1875;52.492;6.860;2023-04-15T08:45:39;7.60;;;4.50;;
3718;SDS011;1875;52.492;6.860;2023-04-15T08:48:07;6.80;;;4.03;;
3718;SDS011;1875;52.492;6.860;2023-04-15T08:50:36;7.20;;;4.50;;
3718;SDS011;1875;52.492;6.860;2023-04-15T08:53:05;7.50;;;5.30;;
3718;SDS011;1875;52.492;6.860;2023-04-15T08:55:33;7.87;;;5.67;;
3718;SDS011;1875;52.492;6.860;2023-04-15T08:58:02;7.73;;;5.07;;
3718;SDS011;1875;52.492;6.860;2023-04-15T09:00:31;5.30;;;3.93;;
3718;SDS011;1875;52.492;6.860;2023-04-15T09:02:59;8.87;;;4.77;;
3718;SDS011;1875;52.492;6.860;2023-04-15T09:05:27;17.13;;;5.37;;
3718;SDS011;1875;52.492;6.860;2023-04-15T09:07:58;8.00;;;5.33;;
3718;SDS011;1875;52.492;6.860;2023-04-15T09:10:27;9.93;;;5.03;;
3718;SDS011;1875;52.492;6.860;2023-04-15T09:12:56;8.63;;;4.90;;
3718;SDS011;1875;52.492;6.860;2023-04-15T09:15:24;7.47;;;5.13;;
3718;SDS011;1875;52.492;6.860;2023-04-15T09:17:52;8.97;;;4.50;;
3718;SDS011;1875;52.492;6.860;2023-04-15T09:20:20;8.47;;;3.87;;
3718;SDS011;1875;52.492;6.860;2023-04-15T09:22:48;6.83;;;4.60;;
3718;SDS011;1875;52.492;6.860;2023-04-15T09:25:28;5.20;;;3.80;;
3718;SDS011;1875;52.492;6.860;2023-04-15T09:27:59;5.53;;;3.33;;
3718;SDS011;1875;52.492;6.860;2023-04-15T09:30:28;6.83;;;3.60;;
3718;SDS011;1875;52.492;6.860;2023-04-15T09:32:57;10.67;;;6.00;;
3718;SDS011;1875;52.492;6.860;2023-04-15T09:35:26;11.13;;;6.50;;
3718;SDS011;1875;52.492;6.860;2023-04-15T09:38:00;12.10;;;6.93;;
3718;SDS011;1875;52.492;6.860;2023-04-15T09:40:34;7.50;;;3.33;;
3718;SDS011;1875;52.492;6.860;2023-04-15T09:43:04;9.20;;;4.87;;
3718;SDS011;1875;52.492;6.860;2023-04-15T09:45:33;8.03;;;4.73;;
3718;SDS011;1875;52.492;6.860;2023-04-15T09:48:14;6.37;;;3.83;;
3718;SDS011;1875;52.492;6.860;2023-04-15T09:50:43;6.50;;;3.60;;
3718;SDS011;1875;52.492;6.860;2023-04-15T09:53:14;6.10;;;3.40;;
3718;SDS011;1875;52.492;6.860;2023-04-15T09:55:44;6.30;;;3.60;;
3718;SDS011;1875;52.492;6.860;2023-04-15T09:58:19;18.07;;;3.00;;
3718;SDS011;1875;52.492;6.860;2023-04-15T10:00:47;7.13;;;3.50;;
3718;SDS011;1875;52.492;6.860;2023-04-15T10:03:17;5.37;;;3.70;;
3718;SDS011;1875;52.492;6.860;2023-04-15T10:05:47;5.80;;;3.03;;
3718;SDS011;1875;52.492;6.860;2023-04-15T10:08:18;5.90;;;3.10;;
3718;SDS011;1875;52.492;6.860;2023-04-15T10:10:49;2.97;;;2.10;;
3718;SDS011;1875;52.492;6.860;2023-04-15T10:13:17;4.47;;;3.20;;
3718;SDS011;1875;52.492;6.860;2023-04-15T10:15:47;5.70;;;3.20;;
3718;SDS011;1875;52.492;6.860;2023-04-15T10:18:19;5.47;;;3.43;;
3718;SDS011;1875;52.492;6.860;2023-04-15T10:20:47;5.10;;;3.40;;
3718;SDS011;1875;52.492;6.860;2023-04-15T10:23:15;5.07;;;2.70;;
3718;SDS011;1875;52.492;6.860;2023-04-15T10:25:44;3.50;;;2.90;;
3718;SDS011;1875;52.492;6.860;2023-04-15T10:28:14;4.53;;;3.07;;
3718;SDS011;1875;52.492;6.860;2023-04-15T10:30:42;4.40;;;3.10;;
3718;SDS011;1875;52.492;6.860;2023-04-15T10:33:10;4.77;;;3.23;;
3718;SDS011;1875;52.492;6.860;2023-04-15T10:35:38;3.87;;;2.90;;
3718;SDS011;1875;52.492;6.860;2023-04-15T10:41:10;4.80;;;3.07;;
3718;SDS011;1875;52.492;6.860;2023-04-15T10:43:40;4.80;;;3.00;;
3718;SDS011;1875;52.492;6.860;2023-04-15T10:46:12;8.03;;;2.93;;
3718;SDS011;1875;52.492;6.860;2023-04-15T10:48:45;6.97;;;3.27;;
3718;SDS011;1875;52.492;6.860;2023-04-15T10:51:14;7.23;;;3.23;;
3718;SDS011;1875;52.492;6.860;2023-04-15T10:53:42;3.53;;;2.70;;
3718;SDS011;1875;52.492;6.860;2023-04-15T10:56:10;3.77;;;2.60;;
3718;SDS011;1875;52.492;6.860;2023-04-15T10:58:42;3.73;;;2.63;;
3718;SDS011;1875;52.492;6.860;2023-04-15T11:01:10;4.30;;;3.00;;
3718;SDS011;1875;52.492;6.860;2023-04-15T11:03:39;5.60;;;2.93;;
3718;SDS011;1875;52.492;6.860;2023-04-15T11:06:09;3.70;;;2.63;;
3718;SDS011;1875;52.492;6.860;2023-04-15T11:08:53;6.67;;;2.70;;
3718;SDS011;1875;52.492;6.860;2023-04-15T11:14:31;5.40;;;3.20;;
3718;SDS011;1875;52.492;6.860;2023-04-15T11:17:00;4.20;;;2.40;;
3718;SDS011;1875;52.492;6.860;2023-04-15T11:19:34;6.53;;;2.40;;
3718;SDS011;1875;52.492;6.860;2023-04-15T11:22:07;3.60;;;2.40;;
3718;SDS011;1875;52.492;6.860;2023-04-15T11:24:35;3.27;;;2.30;;
3718;SDS011;1875;52.492;6.860;2023-04-15T11:27:02;5.63;;;2.40;;
3718;SDS011;1875;52.492;6.860;2023-04-15T11:29:32;4.77;;;2.50;;
3718;SDS011;1875;52.492;6.860;2023-04-15T11:32:05;2.93;;;2.03;;
3718;SDS011;1875;52.492;6.860;2023-04-15T11:34:35;4.40;;;1.93;;
3718;SDS011;1875;52.492;6.860;2023-04-15T11:37:03;4.30;;;3.07;;
3718;SDS011;1875;52.492;6.860;2023-04-15T11:39:31;3.60;;;1.90;;
3718;SDS011;1875;52.492;6.860;2023-04-15T11:41:59;3.20;;;1.87;;
3718;SDS011;1875;52.492;6.860;2023-04-15T11:44:27;5.57;;;2.27;;
3718;SDS011;1875;52.492;6.860;2023-04-15T11:46:56;7.97;;;2.70;;
3718;SDS011;1875;52.492;6.860;2023-04-15T11:49:27;6.40;;;2.80;;
3718;SDS011;1875;52.492;6.860;2023-04-15T11:51:56;3.77;;;2.13;;
3718;SDS011;1875;52.492;6.860;2023-04-15T11:54:23;5.97;;;2.70;;
3718;SDS011;1875;52.492;6.860;2023-04-15T11:56:51;5.17;;;2.43;;
3718;SDS011;1875;52.492;6.860;2023-04-15T11:59:19;5.77;;;2.50;;
3718;SDS011;1875;52.492;6.860;2023-04-15T12:01:49;4.93;;;2.63;;
3718;SDS011;1875;52.492;6.860;2023-04-15T12:04:19;4.77;;;2.30;;
3718;SDS011;1875;52.492;6.860;2023-04-15T12:06:51;4.67;;;2.50;;
3718;SDS011;1875;52.492;6.860;2023-04-15T12:09:19;9.90;;;3.00;;
3718;SDS011;1875;52.492;6.860;2023-04-15T12:11:48;3.03;;;2.00;;
3718;SDS011;1875;52.492;6.860;2023-04-15T12:14:20;3.67;;;1.97;;
3718;SDS011;1875;52.492;6.860;2023-04-15T12:16:51;5.07;;;1.80;;
3718;SDS011;1875;52.492;6.860;2023-04-15T12:19:25;4.90;;;1.97;;
3718;SDS011;1875;52.492;6.860;2023-04-15T12:21:56;5.50;;;2.17;;
3718;SDS011;1875;52.492;6.860;2023-04-15T12:24:26;4.00;;;2.03;;
3718;SDS011;1875;52.492;6.860;2023-04-15T12:26:54;3.70;;;1.83;;
3718;SDS011;1875;52.492;6.860;2023-04-15T12:29:24;1.63;;;1.53;;
3718;SDS011;1875;52.492;6.860;2023-04-15T12:31:54;6.10;;;2.33;;
3718;SDS011;1875;52.492;6.860;2023-04-15T12:34:28;6.63;;;2.17;;
3718;SDS011;1875;52.492;6.860;2023-04-15T12:36:57;4.50;;;1.93;;
3718;SDS011;1875;52.492;6.860;2023-04-15T12:39:27;4.93;;;2.20;;
3718;SDS011;1875;52.492;6.860;2023-04-15T12:41:56;4.27;;;2.13;;
3718;SDS011;1875;52.492;6.860;2023-04-15T12:44:24;7.20;;;2.50;;
3718;SDS011;1875;52.492;6.860;2023-04-15T12:46:52;6.83;;;2.50;;
3718;SDS011;1875;52.492;6.860;2023-04-15T12:49:20;5.60;;;2.23;;
3718;SDS011;1875;52.492;6.860;2023-04-15T12:51:50;3.53;;;2.20;;
3718;SDS011;1875;52.492;6.860;2023-04-15T12:54:19;2.60;;;2.13;;
3718;SDS011;1875;52.492;6.860;2023-04-15T12:56:47;12.37;;;2.40;;
3718;SDS011;1875;52.492;6.860;2023-04-15T12:59:16;4.77;;;2.30;;
3718;SDS011;1875;52.492;6.860;2023-04-15T13:01:44;2.57;;;2.00;;
3718;SDS011;1875;52.492;6.860;2023-04-15T13:04:12;8.53;;;2.40;;
3718;SDS011;1875;52.492;6.860;2023-04-15T13:06:40;8.03;;;2.63;;
3718;SDS011;1875;52.492;6.860;2023-04-15T13:09:10;4.77;;;2.87;;
3718;SDS011;1875;52.492;6.860;2023-04-15T13:11:37;3.97;;;2.10;;
3718;SDS011;1875;52.492;6.860;2023-04-15T13:14:07;6.37;;;2.70;;
3718;SDS011;1875;52.492;6.860;2023-04-15T13:16:36;8.47;;;2.77;;
3718;SDS011;1875;52.492;6.860;2023-04-15T13:19:04;4.80;;;2.80;;
3718;SDS011;1875;52.492;6.860;2023-04-15T13:21:32;5.13;;;2.87;;
3718;SDS011;1875;52.492;6.860;2023-04-15T13:24:01;5.13;;;2.50;;
3718;SDS011;1875;52.492;6.860;2023-04-15T13:26:32;4.67;;;3.37;;
3718;SDS011;1875;52.492;6.860;2023-04-15T13:28:59;7.43;;;2.83;;
3718;SDS011;1875;52.492;6.860;2023-04-15T13:31:27;5.50;;;2.33;;
3718;SDS011;1875;52.492;6.860;2023-04-15T13:33:55;7.43;;;2.30;;
3718;SDS011;1875;52.492;6.860;2023-04-15T13:36:23;4.93;;;2.83;;
3718;SDS011;1875;52.492;6.860;2023-04-15T13:38:51;4.60;;;2.40;;
3718;SDS011;1875;52.492;6.860;2023-04-15T13:41:19;4.80;;;2.30;;
3718;SDS011;1875;52.492;6.860;2023-04-15T13:43:48;6.03;;;2.23;;
3718;SDS011;1875;52.492;6.860;2023-04-15T13:46:16;6.07;;;2.43;;
3718;SDS011;1875;52.492;6.860;2023-04-15T13:48:45;6.73;;;2.10;;
3718;SDS011;1875;52.492;6.860;2023-04-15T13:51:13;4.20;;;2.37;;
3718;SDS011;1875;52.492;6.860;2023-04-15T13:53:40;4.30;;;1.87;;
3718;SDS011;1875;52.492;6.860;2023-04-15T13:56:08;8.37;;;2.27;;
3718;SDS011;1875;52.492;6.860;2023-04-15T13:58:36;9.90;;;3.00;;
3718;SDS011;1875;52.492;6.860;2023-04-15T14:01:05;6.03;;;2.20;;
3718;SDS011;1875;52.492;6.860;2023-04-15T14:03:33;5.70;;;2.87;;
3718;SDS011;1875;52.492;6.860;2023-04-15T14:06:02;5.90;;;2.67;;
3718;SDS011;1875;52.492;6.860;2023-04-15T14:08:31;5.07;;;2.87;;
3718;SDS011;1875;52.492;6.860;2023-04-15T14:10:59;7.13;;;2.77;;
3718;SDS011;1875;52.492;6.860;2023-04-15T14:13:27;4.53;;;2.30;;
3718;SDS011;1875;52.492;6.860;2023-04-15T14:15:55;6.73;;;3.10;;
3718;SDS011;1875;52.492;6.860;2023-04-15T14:18:24;6.47;;;2.73;;
3718;SDS011;1875;52.492;6.860;2023-04-15T14:20:52;6.20;;;2.23;;
3718;SDS011;1875;52.492;6.860;2023-04-15T14:23:20;11.80;;;2.87;;
3718;SDS011;1875;52.492;6.860;2023-04-15T14:25:48;7.00;;;3.43;;
3718;SDS011;1875;52.492;6.860;2023-04-15T14:28:16;5.17;;;2.83;;
3718;SDS011;1875;52.492;6.860;2023-04-15T14:30:44;8.80;;;2.60;;
3718;SDS011;1875;52.492;6.860;2023-04-15T14:33:12;9.73;;;2.87;;
3718;SDS011;1875;52.492;6.860;2023-04-15T14:35:41;5.53;;;2.60;;
3718;SDS011;1875;52.492;6.860;2023-04-15T14:38:09;6.17;;;2.10;;
3718;SDS011;1875;52.492;6.860;2023-04-15T14:40:37;5.10;;;2.60;;
3718;SDS011;1875;52.492;6.860;2023-04-15T14:43:04;4.17;;;2.43;;
3718;SDS011;1875;52.492;6.860;2023-04-15T14:45:33;6.93;;;2.50;;
3718;SDS011;1875;52.492;6.860;2023-04-15T14:48:01;7.40;;;2.20;;
3718;SDS011;1875;52.492;6.860;2023-04-15T14:50:29;6.53;;;2.60;;
3718;SDS011;1875;52.492;6.860;2023-04-15T14:52:58;7.50;;;2.90;;
3718;SDS011;1875;52.492;6.860;2023-04-15T14:55:26;10.60;;;2.93;;
3718;SDS011;1875;52.492;6.860;2023-04-15T14:57:54;8.03;;;2.63;;
3718;SDS011;1875;52.492;6.860;2023-04-15T15:00:21;9.37;;;2.10;;
3718;SDS011;1875;52.492;6.860;2023-04-15T15:02:49;9.83;;;2.63;;
3718;SDS011;1875;52.492;6.860;2023-04-15T15:05:17;6.20;;;2.40;;
3718;SDS011;1875;52.492;6.860;2023-04-15T15:07:46;3.57;;;2.30;;
3718;SDS011;1875;52.492;6.860;2023-04-15T15:10:15;8.47;;;3.47;;
3718;SDS011;1875;52.492;6.860;2023-04-15T15:13:02;10.93;;;3.63;;
3718;SDS011;1875;52.492;6.860;2023-04-15T15:15:30;7.57;;;2.37;;
3718;SDS011;1875;52.492;6.860;2023-04-15T15:17:59;5.40;;;2.20;;